Decoded Metar for LFCK (CASTRES in FRANCE) (IATA:DCM) | Meteo·Mobile Aviation Weather
aviador You're here:

LFCK Decoded Metar

CASTRES in FRANCE
Report Time2019-02-17 07:00:00
UTC Time2019-02-17 07:21:04
Flight Rules vfr VFR
Wind120° at 26 kt
W.Decomp.*RWY 14: 24.4 kt HW 8.9 kt LCW
W.Rank120° ranks 1
Current wind is above 120° avg. (15.5)
Visibility9999 m
Phenomena:N/A
Clouds:N/A
Expected CloudBase > 2,000 ft AGL from Temp-Dew spread
CeilingNone
Temp08°C
Dew Point03°C (71% RH)
AAT-2.9°C
QNH1024 hPa
Raw Report
METAR LFCK 170700Z AUTO 12026KT CAVOK 08/03 Q1024 BECMG 12026G38KT=

Extra information for LFCK:More info

Metar Taf Metar & Taf Last 4 Metars F.Rules Stats Wind Profile Meteogram Temp Stats Airport Information Weather charts Add Link Nearby VenuesMetar ALERT Operation Metar Decoded Social comments